createdAt,value
2018-08-17T00:00:18.889Z,17.30
2018-08-17T00:01:23.071Z,16.50
2018-08-17T00:02:32.671Z,17.62
2018-08-17T00:03:42.510Z,17.52
2018-08-17T00:04:46.628Z,17.75
2018-08-17T00:05:50.491Z,18.23
2018-08-17T00:06:54.389Z,17.98
2018-08-17T00:07:58.286Z,18.30
2018-08-17T00:09:02.452Z,18.05
2018-08-17T00:10:06.658Z,17.77
2018-08-17T00:11:11.002Z,17.95
2018-08-17T00:12:15.270Z,17.20
2018-08-17T00:13:19.477Z,18.82
2018-08-17T00:14:23.885Z,19.10
2018-08-17T00:15:28.053Z,17.57
2018-08-17T00:16:32.244Z,19.00
2018-08-17T00:17:36.420Z,19.17
2018-08-17T00:18:40.734Z,19.02
2018-08-17T00:19:45.028Z,19.32
2018-08-17T00:20:49.202Z,18.70
2018-08-17T00:21:53.375Z,18.65
2018-08-17T00:22:57.521Z,18.77
2018-08-17T00:24:01.958Z,20.30
2018-08-17T00:25:06.258Z,18.75
2018-08-17T00:26:10.451Z,18.17
2018-08-17T00:27:14.619Z,19.25
2018-08-17T00:28:18.775Z,19.37
2018-08-17T00:29:22.938Z,18.85
2018-08-17T00:30:27.095Z,18.82
2018-08-17T00:31:31.270Z,19.52
2018-08-17T00:32:35.476Z,18.17
2018-08-17T00:33:39.620Z,19.40
2018-08-17T00:34:43.804Z,19.77
2018-08-17T00:35:47.988Z,18.42
2018-08-17T00:36:52.363Z,19.37
2018-08-17T00:37:56.523Z,18.45
2018-08-17T00:39:00.707Z,17.05
2018-08-17T00:40:05.882Z,18.00
2018-08-17T00:41:10.071Z,19.37
2018-08-17T00:42:14.345Z,17.32
2018-08-17T00:43:18.838Z,18.70
2018-08-17T00:44:23.032Z,19.00
2018-08-17T00:45:27.235Z,21.75
2018-08-17T00:46:31.426Z,19.02
2018-08-17T00:47:35.749Z,19.25
2018-08-17T00:48:39.941Z,17.95
2018-08-17T00:49:44.132Z,18.27
2018-08-17T00:50:48.364Z,18.82
2018-08-17T00:51:52.603Z,19.17
2018-08-17T00:52:56.782Z,18.23
2018-08-17T00:54:01.013Z,17.30
2018-08-17T00:55:05.531Z,18.85
2018-08-17T00:56:09.781Z,19.33
2018-08-17T00:57:14.175Z,19.17
2018-08-17T00:58:18.447Z,20.50
2018-08-17T00:59:22.610Z,18.05
2018-08-17T01:00:26.802Z,18.73
2018-08-17T01:01:31.002Z,19.37
2018-08-17T01:02:35.229Z,18.37
2018-08-17T01:03:39.694Z,17.75
2018-08-17T01:04:43.852Z,18.02
2018-08-17T01:05:48.064Z,19.17
2018-08-17T01:06:52.376Z,20.23
2018-08-17T01:07:56.600Z,17.87
2018-08-17T01:09:00.837Z,17.85
2018-08-17T01:10:05.307Z,18.00
2018-08-17T01:11:09.492Z,18.55
2018-08-17T01:12:13.812Z,19.10
2018-08-17T01:13:17.996Z,18.55
2018-08-17T01:14:22.295Z,18.12
2018-08-17T01:15:26.626Z,17.20
2018-08-17T01:16:30.781Z,18.10
2018-08-17T01:17:35.002Z,19.52
2018-08-17T01:18:39.167Z,19.07
2018-08-17T01:19:43.414Z,18.85
2018-08-17T01:20:47.585Z,17.95
2018-08-17T01:21:51.747Z,19.02
2018-08-17T01:22:56.071Z,18.67
2018-08-17T01:24:00.226Z,18.73
2018-08-17T01:25:04.967Z,20.70
2018-08-17T01:26:09.162Z,20.10
2018-08-17T01:27:13.363Z,19.55
2018-08-17T01:28:17.550Z,20.25
2018-08-17T01:29:21.923Z,19.67
2018-08-17T01:30:26.091Z,20.20
2018-08-17T01:31:30.266Z,20.55
2018-08-17T01:32:34.438Z,22.70
2018-08-17T01:33:38.650Z,20.85
2018-08-17T01:34:42.798Z,19.53
2018-08-17T01:35:46.971Z,23.20
2018-08-17T01:36:51.297Z,21.60
2018-08-17T01:37:55.483Z,23.25
2018-08-17T01:38:59.683Z,23.73
2018-08-17T01:40:03.914Z,24.07
2018-08-17T01:41:08.107Z,24.82
2018-08-17T01:42:12.289Z,26.95
2018-08-17T01:43:16.463Z,26.85
2018-08-17T01:44:20.905Z,27.90
2018-08-17T01:45:25.072Z,25.65
2018-08-17T01:46:29.235Z,24.75
2018-08-17T01:47:33.728Z,27.45
2018-08-17T01:48:37.882Z,22.80
2018-08-17T01:49:42.136Z,24.57
2018-08-17T01:50:46.447Z,25.72
2018-08-17T01:51:50.604Z,24.40
2018-08-17T01:52:54.787Z,27.75
2018-08-17T01:53:58.946Z,27.82
2018-08-17T01:55:03.264Z,26.93
2018-08-17T01:56:07.482Z,25.25
2018-08-17T01:57:11.880Z,26.95
2018-08-17T01:58:16.074Z,24.77
2018-08-17T01:59:20.291Z,24.05
2018-08-17T02:00:24.508Z,26.87
2018-08-17T02:01:28.698Z,23.77
2018-08-17T02:02:32.871Z,24.95
2018-08-17T02:03:37.063Z,25.30
2018-08-17T02:04:41.247Z,23.80
2018-08-17T02:05:45.484Z,21.80
2018-08-17T02:06:49.659Z,22.93
2018-08-17T02:07:54.087Z,25.10
2018-08-17T02:08:58.271Z,24.00
2018-08-17T02:10:02.475Z,22.75
2018-08-17T02:11:06.854Z,20.37
2018-08-17T02:12:11.023Z,24.80
2018-08-17T02:13:19.482Z,22.58
2018-08-17T02:14:23.687Z,24.98
2018-08-17T02:15:27.974Z,23.65
2018-08-17T02:16:32.147Z,23.18
2018-08-17T02:17:36.408Z,21.85
2018-08-17T02:18:40.694Z,21.57
2018-08-17T02:19:44.834Z,22.87
2018-08-17T02:20:49.009Z,22.32
2018-08-17T02:21:53.205Z,20.52
2018-08-17T02:22:57.570Z,21.23
2018-08-17T02:24:01.724Z,21.20
2018-08-17T02:25:05.951Z,18.20
2018-08-17T02:26:10.116Z,18.98
2018-08-17T02:27:14.334Z,21.80
2018-08-17T02:28:18.487Z,19.65
2018-08-17T02:29:22.703Z,20.37
2018-08-17T02:30:26.861Z,19.42
2018-08-17T02:31:31.085Z,18.55
2018-08-17T02:32:35.278Z,16.50
2018-08-17T02:33:39.604Z,19.32
2018-08-17T02:34:43.872Z,18.17
2018-08-17T02:35:50.335Z,18.12
2018-08-17T02:36:54.504Z,17.35
2018-08-17T02:37:58.742Z,16.52
2018-08-17T02:39:03.150Z,14.30
2018-08-17T02:40:07.371Z,14.95
2018-08-17T02:41:11.766Z,13.60
2018-08-17T02:42:19.182Z,12.55
2018-08-17T02:43:23.380Z,13.32
2018-08-17T02:44:28.043Z,10.25
2018-08-17T02:45:32.219Z,10.72
2018-08-17T02:46:36.440Z,10.65
2018-08-17T02:47:40.603Z,11.57
2018-08-17T02:48:44.799Z,10.60
2018-08-17T02:49:48.989Z,10.08
2018-08-17T02:50:53.463Z,10.15
2018-08-17T02:51:57.707Z,9.68
2018-08-17T02:53:01.887Z,8.95
2018-08-17T02:54:07.019Z,9.85
2018-08-17T02:55:11.195Z,9.78
2018-08-17T02:56:15.366Z,9.73
2018-08-17T02:57:19.552Z,9.75
2018-08-17T02:58:23.691Z,9.78
2018-08-17T02:59:27.890Z,8.58
2018-08-17T03:00:32.080Z,8.33
2018-08-17T03:01:36.280Z,8.98
2018-08-17T03:02:40.543Z,9.25
2018-08-17T03:03:44.721Z,8.55
2018-08-17T03:04:49.023Z,8.40
2018-08-17T03:05:53.195Z,8.23
2018-08-17T03:06:57.388Z,9.65
2018-08-17T03:08:01.613Z,8.58
2018-08-17T03:09:07.831Z,8.15
2018-08-17T03:10:12.027Z,6.62
2018-08-17T03:11:16.184Z,8.55
2018-08-17T03:12:20.455Z,8.35
2018-08-17T03:13:24.588Z,8.23
2018-08-17T03:14:28.792Z,8.38
2018-08-17T03:15:33.159Z,9.40
2018-08-17T03:16:37.353Z,9.30
2018-08-17T03:17:41.526Z,10.68
2018-08-17T03:18:45.683Z,9.80
2018-08-17T03:19:49.978Z,9.40
2018-08-17T03:20:54.183Z,9.13
2018-08-17T03:21:58.382Z,9.50
2018-08-17T03:23:02.551Z,8.40
2018-08-17T03:24:06.936Z,9.40
2018-08-17T03:25:11.106Z,7.97
2018-08-17T03:26:16.091Z,9.70
2018-08-17T03:27:20.568Z,9.33
2018-08-17T03:28:24.738Z,9.95
2018-08-17T03:29:28.971Z,9.00
2018-08-17T03:30:33.128Z,8.65
2018-08-17T03:31:37.337Z,8.30
2018-08-17T03:32:41.601Z,9.25
2018-08-17T03:33:45.782Z,9.70
2018-08-17T03:34:50.031Z,9.70
2018-08-17T03:35:54.522Z,9.60
2018-08-17T03:36:58.883Z,10.25
2018-08-17T03:38:03.192Z,9.13
2018-08-17T03:39:08.783Z,9.60
2018-08-17T03:40:12.934Z,8.83
2018-08-17T03:41:17.186Z,10.10
2018-08-17T03:42:21.414Z,9.40
2018-08-17T03:43:25.699Z,9.78
2018-08-17T03:44:30.021Z,9.68
2018-08-17T03:45:34.214Z,9.20
2018-08-17T03:46:38.530Z,9.48
2018-08-17T03:47:42.703Z,9.73
2018-08-17T03:48:46.855Z,7.37
2018-08-17T03:49:51.031Z,8.08
2018-08-17T03:50:56.107Z,8.25
2018-08-17T03:52:00.505Z,7.95
2018-08-17T03:53:04.679Z,8.00
2018-08-17T03:54:08.875Z,8.63
2018-08-17T03:55:13.628Z,7.60
2018-08-17T03:56:17.809Z,8.10
2018-08-17T03:57:21.971Z,7.37
2018-08-17T03:58:26.274Z,8.70
2018-08-17T03:59:31.669Z,8.23
2018-08-17T04:00:37.139Z,8.00
2018-08-17T04:01:41.298Z,8.85
2018-08-17T04:02:45.492Z,7.28
2018-08-17T04:03:49.668Z,8.63
2018-08-17T04:04:53.955Z,8.03
2018-08-17T04:05:58.144Z,7.47
2018-08-17T04:07:02.412Z,8.00
2018-08-17T04:08:06.730Z,7.10
2018-08-17T04:09:11.832Z,8.83
2018-08-17T04:10:16.011Z,7.85
2018-08-17T04:11:20.200Z,10.35
2018-08-17T04:12:24.358Z,10.32
2018-08-17T04:13:28.590Z,11.43
2018-08-17T04:14:32.991Z,11.97
2018-08-17T04:15:37.523Z,10.60
2018-08-17T04:16:41.692Z,11.60
2018-08-17T04:17:45.828Z,9.85
2018-08-17T04:18:54.576Z,10.28
2018-08-17T04:19:58.813Z,9.15
2018-08-17T04:21:02.979Z,9.68
2018-08-17T04:22:07.305Z,9.53
2018-08-17T04:23:11.444Z,9.20
2018-08-17T04:24:15.590Z,9.48
2018-08-17T04:25:19.864Z,9.63
2018-08-17T04:26:24.146Z,8.25
2018-08-17T04:27:28.387Z,8.03
2018-08-17T04:28:32.563Z,8.70
2018-08-17T04:29:36.758Z,8.90
2018-08-17T04:30:40.969Z,7.85
2018-08-17T04:31:45.125Z,7.80
2018-08-17T04:32:49.375Z,7.60
2018-08-17T04:33:53.595Z,7.60
2018-08-17T04:34:57.804Z,7.10
2018-08-17T04:36:01.989Z,8.35
2018-08-17T04:37:06.156Z,8.25
2018-08-17T04:38:10.310Z,8.43
2018-08-17T04:39:14.472Z,7.03
2018-08-17T04:40:18.679Z,8.90
2018-08-17T04:41:22.864Z,8.08
2018-08-17T04:42:27.591Z,7.85
2018-08-17T04:43:31.903Z,8.78
2018-08-17T04:44:36.361Z,8.55
2018-08-17T04:45:40.516Z,7.85
2018-08-17T04:46:44.896Z,7.03
2018-08-17T04:47:49.086Z,7.62
2018-08-17T04:48:53.630Z,6.87
2018-08-17T04:49:57.775Z,5.47
2018-08-17T04:51:01.938Z,5.55
2018-08-17T04:52:06.194Z,6.17
2018-08-17T04:53:10.339Z,6.10
2018-08-17T04:54:14.509Z,5.50
2018-08-17T04:55:18.772Z,5.37
2018-08-17T04:56:23.117Z,5.12
2018-08-17T04:57:27.425Z,5.80
2018-08-17T04:58:31.849Z,4.10
2018-08-17T04:59:36.104Z,4.85
2018-08-17T05:00:40.275Z,5.55
2018-08-17T05:01:44.440Z,5.15
2018-08-17T05:02:48.606Z,5.45
2018-08-17T05:03:52.878Z,5.42
2018-08-17T05:04:57.033Z,5.85
2018-08-17T05:06:01.180Z,5.80
2018-08-17T05:07:05.350Z,5.72
2018-08-17T05:08:09.549Z,5.55
2018-08-17T05:09:13.716Z,6.95
2018-08-17T05:10:17.846Z,7.08
2018-08-17T05:11:22.197Z,6.72
2018-08-17T05:12:26.534Z,5.97
2018-08-17T05:13:30.810Z,7.60
2018-08-17T05:14:35.116Z,6.47
2018-08-17T05:15:39.243Z,7.00
2018-08-17T05:16:43.497Z,8.05
2018-08-17T05:17:47.648Z,7.05
2018-08-17T05:18:51.990Z,7.35
2018-08-17T05:19:56.224Z,8.98
2018-08-17T05:21:00.365Z,8.25
2018-08-17T05:22:04.723Z,8.55
2018-08-17T05:23:08.876Z,7.87
2018-08-17T05:24:13.767Z,8.05
2018-08-17T05:25:17.918Z,9.28
2018-08-17T05:26:22.102Z,9.03
2018-08-17T05:27:26.239Z,9.18
2018-08-17T05:28:30.375Z,8.33
2018-08-17T05:29:34.567Z,9.78
2018-08-17T05:30:38.718Z,8.30
2018-08-17T05:31:43.327Z,8.08
2018-08-17T05:32:47.486Z,8.30
2018-08-17T05:33:52.041Z,9.95
2018-08-17T05:34:56.196Z,9.40
2018-08-17T05:36:00.393Z,9.50
2018-08-17T05:37:05.077Z,10.05
2018-08-17T05:38:09.268Z,9.85
2018-08-17T05:39:13.399Z,11.12
2018-08-17T05:40:17.579Z,11.20
2018-08-17T05:41:21.729Z,12.13
2018-08-17T05:42:25.859Z,11.95
2018-08-17T05:43:30.007Z,11.10
2018-08-17T05:44:34.158Z,12.45
2018-08-17T05:45:38.660Z,12.23
2018-08-17T05:46:42.911Z,12.47
2018-08-17T05:47:47.113Z,11.50
2018-08-17T05:48:51.351Z,10.43
2018-08-17T05:49:55.536Z,12.28
2018-08-17T05:50:59.731Z,10.90
2018-08-17T05:52:04.037Z,11.90
2018-08-17T05:53:08.261Z,11.28
2018-08-17T05:54:12.467Z,11.90
2018-08-17T05:55:16.671Z,12.45
2018-08-17T05:56:20.909Z,11.05
2018-08-17T05:57:25.108Z,11.10
2018-08-17T05:58:29.283Z,11.25
2018-08-17T05:59:33.654Z,12.03
2018-08-17T06:00:37.919Z,12.78
2018-08-17T06:01:42.114Z,10.00
2018-08-17T06:02:46.552Z,9.25
2018-08-17T06:03:50.703Z,10.53
2018-08-17T06:04:55.060Z,10.00
2018-08-17T06:05:59.422Z,11.40
2018-08-17T06:07:03.640Z,9.98
2018-08-17T06:08:07.973Z,10.32
2018-08-17T06:09:12.198Z,11.00
2018-08-17T06:10:16.543Z,11.30
2018-08-17T06:11:20.949Z,10.90
2018-08-17T06:12:24.948Z,10.32
2018-08-17T06:13:29.192Z,9.00
2018-08-17T06:14:33.362Z,10.03
2018-08-17T06:15:37.578Z,11.33
2018-08-17T06:16:41.779Z,11.10
2018-08-17T06:17:45.989Z,10.63
2018-08-17T06:18:50.174Z,12.40
2018-08-17T06:19:54.716Z,11.35
2018-08-17T06:20:58.887Z,12.28
2018-08-17T06:22:03.066Z,10.80
2018-08-17T06:23:07.329Z,12.23
2018-08-17T06:24:11.626Z,10.65
2018-08-17T06:25:15.934Z,9.28
2018-08-17T06:26:20.086Z,8.73
2018-08-17T06:27:24.366Z,8.53
2018-08-17T06:28:28.823Z,7.90
2018-08-17T06:29:32.999Z,7.72
2018-08-17T06:30:37.203Z,8.50
2018-08-17T06:31:41.489Z,7.80
2018-08-17T06:32:45.907Z,7.22
2018-08-17T06:33:50.139Z,7.67
2018-08-17T06:34:54.315Z,7.33
2018-08-17T06:35:58.551Z,8.00
2018-08-17T06:37:02.817Z,6.78
2018-08-17T06:38:07.009Z,8.85
2018-08-17T06:39:12.020Z,7.42
2018-08-17T06:40:16.239Z,7.35
2018-08-17T06:41:20.442Z,7.95
2018-08-17T06:42:24.650Z,8.15
2018-08-17T06:43:29.057Z,6.85
2018-08-17T06:44:33.264Z,7.53
2018-08-17T06:45:37.468Z,8.68
2018-08-17T06:46:41.936Z,7.90
2018-08-17T06:47:46.110Z,7.70
2018-08-17T06:48:50.300Z,7.28
2018-08-17T06:49:54.802Z,8.00
2018-08-17T06:50:59.172Z,8.15
2018-08-17T06:52:03.215Z,8.48
2018-08-17T06:53:07.395Z,7.42
2018-08-17T06:54:11.559Z,7.10
2018-08-17T06:55:15.783Z,6.50
2018-08-17T06:56:20.032Z,7.87
2018-08-17T06:57:24.303Z,7.30
2018-08-17T06:58:28.458Z,7.10
2018-08-17T06:59:32.783Z,7.30
2018-08-17T07:00:37.058Z,7.08
2018-08-17T07:01:41.553Z,6.53
2018-08-17T07:02:46.654Z,6.67
2018-08-17T07:03:50.839Z,6.33
2018-08-17T07:04:55.017Z,6.28
2018-08-17T07:05:59.394Z,9.53
2018-08-17T07:07:03.666Z,7.00
2018-08-17T07:08:07.831Z,6.90
2018-08-17T07:09:12.118Z,7.67
2018-08-17T07:10:16.223Z,6.70
2018-08-17T07:11:20.441Z,6.90
2018-08-17T07:12:24.667Z,6.35
2018-08-17T07:13:28.827Z,6.60
2018-08-17T07:14:33.060Z,6.65
2018-08-17T07:15:37.442Z,7.65
2018-08-17T07:16:41.767Z,6.15
2018-08-17T07:17:45.981Z,6.33
2018-08-17T07:18:50.665Z,6.25
2018-08-17T07:19:54.900Z,6.65
2018-08-17T07:20:59.039Z,7.17
2018-08-17T07:22:03.719Z,6.60
2018-08-17T07:23:07.920Z,6.50
2018-08-17T07:24:12.132Z,6.10
2018-08-17T07:25:16.335Z,6.08
2018-08-17T07:26:20.499Z,6.20
2018-08-17T07:27:24.707Z,6.35
2018-08-17T07:28:29.053Z,6.20
2018-08-17T07:29:33.210Z,6.65
2018-08-17T07:30:37.404Z,6.35
2018-08-17T07:31:42.271Z,6.40
2018-08-17T07:32:46.455Z,6.05
2018-08-17T07:33:50.620Z,6.08
2018-08-17T07:34:54.779Z,6.15
2018-08-17T07:35:58.944Z,6.17
2018-08-17T07:37:03.103Z,6.30
2018-08-17T07:38:07.312Z,5.70
2018-08-17T07:39:11.498Z,6.05
2018-08-17T07:40:15.966Z,4.95
2018-08-17T07:41:20.295Z,5.30
2018-08-17T07:42:24.475Z,5.62
2018-08-17T07:43:28.674Z,5.70
2018-08-17T07:44:32.880Z,5.58
2018-08-17T07:45:37.479Z,6.50
2018-08-17T07:46:41.910Z,5.97
2018-08-17T07:47:46.157Z,6.72
2018-08-17T07:48:50.300Z,6.15
2018-08-17T07:49:54.437Z,5.58
2018-08-17T07:50:58.579Z,5.53
2018-08-17T07:52:02.771Z,6.35
2018-08-17T07:53:06.943Z,5.22
2018-08-17T07:54:11.122Z,7.10
2018-08-17T07:55:15.566Z,7.47
2018-08-17T07:56:19.740Z,6.15
2018-08-17T07:57:23.904Z,7.05
2018-08-17T07:58:28.106Z,8.23
2018-08-17T07:59:32.335Z,7.25
2018-08-17T08:00:36.816Z,6.95
2018-08-17T08:01:41.157Z,8.55
2018-08-17T08:02:45.462Z,7.53
2018-08-17T08:03:49.582Z,7.92
2018-08-17T08:04:54.134Z,7.83
2018-08-17T08:05:58.298Z,8.00
2018-08-17T08:07:02.471Z,8.33
2018-08-17T08:08:07.001Z,8.88
2018-08-17T08:09:11.576Z,7.35
2018-08-17T08:10:15.762Z,9.20
2018-08-17T08:11:19.940Z,9.48
2018-08-17T08:12:24.099Z,10.55
2018-08-17T08:13:28.388Z,9.70
2018-08-17T08:14:32.599Z,10.88
2018-08-17T08:15:36.835Z,11.80
2018-08-17T08:16:41.085Z,11.88
2018-08-17T08:17:45.428Z,11.55
2018-08-17T08:18:49.617Z,15.25
2018-08-17T08:20:05.079Z,16.80
2018-08-17T08:21:09.281Z,18.35
2018-08-17T08:22:13.548Z,20.85
2018-08-17T08:23:24.618Z,21.55
2018-08-17T08:24:28.860Z,23.70
2018-08-17T08:25:33.023Z,22.10
2018-08-17T08:26:37.235Z,18.82
2018-08-17T08:27:41.535Z,20.25
2018-08-17T08:28:45.764Z,17.07
2018-08-17T08:29:50.047Z,17.48
2018-08-17T08:30:54.732Z,16.55
2018-08-17T08:31:59.015Z,16.45
2018-08-17T08:33:03.343Z,14.35
2018-08-17T08:34:07.691Z,15.08
2018-08-17T08:35:11.848Z,14.53
2018-08-17T08:36:16.039Z,14.75
2018-08-17T08:37:20.695Z,14.35
2018-08-17T08:38:24.918Z,15.10
2018-08-17T08:39:29.318Z,15.08
2018-08-17T08:40:33.456Z,13.65
2018-08-17T08:41:37.694Z,12.53
2018-08-17T08:42:42.038Z,11.93
2018-08-17T08:43:46.212Z,13.30
2018-08-17T08:44:50.358Z,13.55
2018-08-17T08:45:54.615Z,13.40
2018-08-17T08:46:59.075Z,14.03
2018-08-17T08:48:03.866Z,13.25
2018-08-17T08:49:08.075Z,12.33
2018-08-17T08:50:12.487Z,12.75
2018-08-17T08:51:16.635Z,12.90
2018-08-17T08:52:20.916Z,11.68
2018-08-17T08:53:25.064Z,13.35
2018-08-17T08:54:29.228Z,11.68
2018-08-17T08:55:33.393Z,13.85
2018-08-17T08:56:37.634Z,13.75
2018-08-17T08:57:41.788Z,11.65
2018-08-17T08:58:45.979Z,10.43
2018-08-17T08:59:50.127Z,9.20
2018-08-17T09:00:54.304Z,9.60
2018-08-17T09:01:58.483Z,8.70
2018-08-17T09:03:02.619Z,7.35
2018-08-17T09:04:07.611Z,8.35
2018-08-17T09:05:11.787Z,8.35
2018-08-17T09:06:15.993Z,7.72
2018-08-17T09:07:20.176Z,8.50
2018-08-17T09:08:24.409Z,6.30
2018-08-17T09:09:28.601Z,7.55
2018-08-17T09:10:32.780Z,8.00
2018-08-17T09:11:37.036Z,8.28
2018-08-17T09:12:41.216Z,5.75
2018-08-17T09:13:45.498Z,5.50
2018-08-17T09:14:49.637Z,4.03
2018-08-17T09:15:53.973Z,5.50
2018-08-17T09:16:58.135Z,4.10
2018-08-17T09:18:02.352Z,4.28
2018-08-17T09:19:06.696Z,5.50
2018-08-17T09:20:13.063Z,4.40
2018-08-17T09:21:17.199Z,4.35
2018-08-17T09:22:21.352Z,4.30
2018-08-17T09:23:25.539Z,4.42
2018-08-17T09:24:29.697Z,4.10
2018-08-17T09:25:33.875Z,4.17
2018-08-17T09:26:38.015Z,4.10
2018-08-17T09:27:42.553Z,4.30
2018-08-17T09:28:46.699Z,4.75
2018-08-17T09:29:50.963Z,5.15
2018-08-17T09:30:55.131Z,5.20
2018-08-17T09:31:59.271Z,5.05
2018-08-17T09:33:03.406Z,5.20
2018-08-17T09:34:07.904Z,5.50
2018-08-17T09:35:13.186Z,5.90
2018-08-17T09:36:17.391Z,5.92
2018-08-17T09:37:21.792Z,5.50
2018-08-17T09:38:25.934Z,5.65
2018-08-17T09:39:30.162Z,5.53
2018-08-17T09:40:34.316Z,6.35
2018-08-17T09:41:38.551Z,5.03
2018-08-17T09:42:42.658Z,4.80
2018-08-17T09:43:46.778Z,6.30
2018-08-17T09:44:50.920Z,5.60
2018-08-17T09:45:55.064Z,5.15
2018-08-17T09:46:59.535Z,5.58
2018-08-17T09:48:03.700Z,6.00
2018-08-17T09:49:07.864Z,5.75
2018-08-17T09:50:13.684Z,5.53
2018-08-17T09:51:17.999Z,5.95
2018-08-17T09:52:22.187Z,5.90
2018-08-17T09:53:26.983Z,6.40
2018-08-17T09:54:31.163Z,5.80
2018-08-17T09:55:35.315Z,6.15
2018-08-17T09:56:39.504Z,6.65
2018-08-17T09:57:43.765Z,6.10
2018-08-17T09:58:47.852Z,6.62
2018-08-17T09:59:52.119Z,5.50
2018-08-17T10:01:01.579Z,7.33
2018-08-17T10:02:11.920Z,6.25
2018-08-17T10:03:21.320Z,6.00
2018-08-17T10:04:30.941Z,6.28
2018-08-17T10:05:39.638Z,6.42
2018-08-17T10:06:49.299Z,6.17
2018-08-17T10:07:58.818Z,7.10
2018-08-17T10:09:08.449Z,7.10
2018-08-17T10:10:18.438Z,7.20
2018-08-17T10:11:22.595Z,7.17
2018-08-17T10:12:26.911Z,6.40
2018-08-17T10:13:31.195Z,7.10
2018-08-17T10:14:35.499Z,5.90
2018-08-17T10:15:40.085Z,5.97
2018-08-17T10:16:44.319Z,6.37
2018-08-17T10:17:48.467Z,6.75
2018-08-17T10:18:52.675Z,7.05
2018-08-17T10:19:57.036Z,7.33
2018-08-17T10:21:01.452Z,6.15
2018-08-17T10:22:06.174Z,6.42
2018-08-17T10:23:15.488Z,7.37
2018-08-17T10:24:20.303Z,6.85
2018-08-17T10:25:25.726Z,6.65
2018-08-17T10:26:29.925Z,7.50
2018-08-17T10:27:34.105Z,6.05
2018-08-17T10:28:38.466Z,6.30
2018-08-17T10:29:42.625Z,7.37
2018-08-17T10:30:46.848Z,6.65
2018-08-17T10:31:51.453Z,6.40
2018-08-17T10:32:58.673Z,6.60
2018-08-17T10:34:03.027Z,7.92
2018-08-17T10:35:09.015Z,6.67
2018-08-17T10:36:13.220Z,7.20
2018-08-17T10:37:17.467Z,6.85
2018-08-17T10:38:21.732Z,6.25
2018-08-17T10:39:25.882Z,6.50
2018-08-17T10:40:30.092Z,6.58
2018-08-17T10:41:34.457Z,7.47
2018-08-17T10:42:38.619Z,7.40
2018-08-17T10:43:42.788Z,6.80
2018-08-17T10:44:46.969Z,6.03
2018-08-17T10:45:51.198Z,5.87
2018-08-17T10:46:55.380Z,6.70
2018-08-17T10:47:59.942Z,6.80
2018-08-17T10:49:04.168Z,7.10
2018-08-17T10:50:13.628Z,7.25
2018-08-17T10:51:17.759Z,7.85
2018-08-17T10:52:21.923Z,8.13
2018-08-17T10:53:28.774Z,8.10
2018-08-17T10:54:32.956Z,7.00
2018-08-17T10:55:42.920Z,8.25
2018-08-17T10:56:47.079Z,7.62
2018-08-17T10:57:51.454Z,7.50
2018-08-17T10:58:55.602Z,7.85
2018-08-17T10:59:59.923Z,6.75
2018-08-17T11:01:04.112Z,7.45
2018-08-17T11:02:08.286Z,7.50
2018-08-17T11:03:12.470Z,6.83
2018-08-17T11:04:16.624Z,7.35
2018-08-17T11:05:20.806Z,8.28
2018-08-17T11:06:24.993Z,7.25
2018-08-17T11:07:34.462Z,5.53
2018-08-17T11:08:38.983Z,4.97
2018-08-17T11:09:43.240Z,5.50
2018-08-17T11:10:47.418Z,4.45
2018-08-17T11:11:51.575Z,4.75
2018-08-17T11:12:55.787Z,4.95
2018-08-17T11:13:59.965Z,4.37
2018-08-17T11:15:04.839Z,5.30
2018-08-17T11:16:09.086Z,4.80
2018-08-17T11:17:13.220Z,4.97
2018-08-17T11:18:17.435Z,4.50
2018-08-17T11:19:21.799Z,5.70
2018-08-17T11:20:25.943Z,5.33
2018-08-17T11:21:30.231Z,5.15
2018-08-17T11:22:34.852Z,4.87
2018-08-17T11:23:39.176Z,5.53
2018-08-17T11:24:43.484Z,4.47
2018-08-17T11:25:47.649Z,5.20
2018-08-17T11:26:51.893Z,5.92
2018-08-17T11:27:56.061Z,6.17
2018-08-17T11:29:00.588Z,6.40
2018-08-17T11:30:07.640Z,6.05
2018-08-17T11:31:11.848Z,5.90
2018-08-17T11:32:15.991Z,5.90
2018-08-17T11:33:24.591Z,6.58
2018-08-17T11:34:28.831Z,6.03
2018-08-17T11:35:32.973Z,5.67
2018-08-17T11:36:37.198Z,6.12
2018-08-17T11:37:41.379Z,6.20
2018-08-17T11:38:45.527Z,6.15
2018-08-17T11:39:54.715Z,6.20
2018-08-17T11:40:58.868Z,7.65
2018-08-17T11:42:03.013Z,6.00
2018-08-17T11:43:07.222Z,6.28
2018-08-17T11:44:14.687Z,6.05
2018-08-17T11:45:20.391Z,5.78
2018-08-17T11:46:24.634Z,6.33
2018-08-17T11:47:28.860Z,6.83
2018-08-17T11:48:35.034Z,6.47
2018-08-17T11:49:39.218Z,5.25
2018-08-17T11:50:43.430Z,5.65
2018-08-17T11:51:47.618Z,5.60
2018-08-17T11:52:53.021Z,4.78
2018-08-17T11:53:57.304Z,5.60
2018-08-17T11:55:01.706Z,5.80
2018-08-17T11:56:05.928Z,4.80
2018-08-17T11:57:10.180Z,5.47
2018-08-17T11:58:14.363Z,4.85
2018-08-17T11:59:18.615Z,6.30
2018-08-17T12:00:22.798Z,5.53
2018-08-17T12:01:27.402Z,6.05
2018-08-17T12:02:31.571Z,4.95
2018-08-17T12:03:35.755Z,5.75
2018-08-17T12:04:41.064Z,5.55
2018-08-17T12:05:45.215Z,5.83
2018-08-17T12:06:49.369Z,5.53
2018-08-17T12:07:53.557Z,5.53
2018-08-17T12:08:57.769Z,5.72
2018-08-17T12:10:04.675Z,5.53
2018-08-17T12:11:08.847Z,6.75
2018-08-17T12:12:13.151Z,6.17
2018-08-17T12:13:17.664Z,6.50
2018-08-17T12:14:21.802Z,6.58
2018-08-17T12:15:25.972Z,5.80
2018-08-17T12:16:30.149Z,6.20
2018-08-17T12:17:34.639Z,6.55
2018-08-17T12:18:38.950Z,5.62
2018-08-17T12:19:43.095Z,6.85
2018-08-17T12:20:47.403Z,5.45
2018-08-17T12:21:51.547Z,6.58
2018-08-17T12:22:55.814Z,6.10
2018-08-17T12:23:59.984Z,6.00
2018-08-17T12:25:04.670Z,6.25
2018-08-17T12:26:08.724Z,6.03
2018-08-17T12:27:12.921Z,6.33
2018-08-17T12:28:17.091Z,6.53
2018-08-17T12:29:21.301Z,5.35
2018-08-17T12:30:25.581Z,5.43
2018-08-17T12:31:29.762Z,6.37
2018-08-17T12:32:33.912Z,5.83
2018-08-17T12:33:38.598Z,7.20
2018-08-17T12:34:42.888Z,6.30
2018-08-17T12:35:47.298Z,7.30
2018-08-17T12:36:51.608Z,6.50
2018-08-17T12:38:01.120Z,5.73
2018-08-17T12:39:09.095Z,5.15
2018-08-17T12:40:13.906Z,5.70
2018-08-17T12:41:18.199Z,5.87
2018-08-17T12:42:22.358Z,7.20
2018-08-17T12:43:28.263Z,6.37
2018-08-17T12:44:32.954Z,6.45
2018-08-17T12:45:37.140Z,6.67
2018-08-17T12:46:40.706Z,7.10
2018-08-17T12:47:44.615Z,7.87
2018-08-17T12:48:48.953Z,8.00
2018-08-17T12:49:53.202Z,7.67
2018-08-17T12:51:01.567Z,8.80
2018-08-17T12:52:05.780Z,7.40
2018-08-17T12:53:10.042Z,7.53
2018-08-17T12:54:19.609Z,6.62
2018-08-17T12:55:23.792Z,6.83
2018-08-17T12:56:27.990Z,6.28
2018-08-17T12:57:37.617Z,5.90
2018-08-17T12:58:41.963Z,6.65
2018-08-17T12:59:46.199Z,6.05
2018-08-17T13:00:50.396Z,7.22
2018-08-17T13:01:55.141Z,6.65
2018-08-17T13:02:59.323Z,6.63
2018-08-17T13:04:03.579Z,7.35
2018-08-17T13:05:07.812Z,7.40
2018-08-17T13:06:11.988Z,7.13
2018-08-17T13:07:16.449Z,5.90
2018-08-17T13:08:20.606Z,7.47
2018-08-17T13:09:24.788Z,7.70
2018-08-17T13:10:28.962Z,5.85
2018-08-17T13:11:33.193Z,5.95
2018-08-17T13:12:37.383Z,6.20
2018-08-17T13:13:41.547Z,6.07
2018-08-17T13:14:45.793Z,4.53
2018-08-17T13:15:55.151Z,5.58
2018-08-17T13:17:00.260Z,5.95
2018-08-17T13:18:15.138Z,6.28
2018-08-17T13:19:19.456Z,5.55
2018-08-17T13:20:23.845Z,6.33
2018-08-17T13:21:28.151Z,5.80
2018-08-17T13:22:32.375Z,5.55
2018-08-17T13:23:36.733Z,5.30
2018-08-17T13:24:40.918Z,4.83
2018-08-17T13:25:45.179Z,4.10
2018-08-17T13:26:49.486Z,5.43
2018-08-17T13:27:53.664Z,4.72
2018-08-17T13:28:58.101Z,4.60
2018-08-17T13:30:02.263Z,4.50
2018-08-17T13:31:06.428Z,4.42
2018-08-17T13:32:10.613Z,4.17
2018-08-17T13:33:14.758Z,4.80
2018-08-17T13:34:19.008Z,6.55
2018-08-17T13:35:23.230Z,6.25
2018-08-17T13:36:27.445Z,5.60
2018-08-17T13:37:31.805Z,5.93
2018-08-17T13:38:36.025Z,6.42
2018-08-17T13:39:40.426Z,5.87
2018-08-17T13:40:44.615Z,5.50
2018-08-17T13:41:48.869Z,5.93
2018-08-17T13:42:53.019Z,7.47
2018-08-17T13:43:57.191Z,6.60
2018-08-17T13:45:01.385Z,6.50
2018-08-17T13:46:05.639Z,5.30
2018-08-17T13:47:09.928Z,5.13
2018-08-17T13:48:14.139Z,5.55
2018-08-17T13:49:18.447Z,5.75
2018-08-17T13:50:22.920Z,5.42
2018-08-17T13:51:27.364Z,5.70
2018-08-17T13:52:31.663Z,6.50
2018-08-17T13:53:35.809Z,5.05
2018-08-17T13:54:40.245Z,5.87
2018-08-17T13:55:44.421Z,6.15
2018-08-17T13:56:48.561Z,5.40
2018-08-17T13:57:52.796Z,7.00
2018-08-17T13:58:56.982Z,5.73
2018-08-17T14:00:01.390Z,5.78
2018-08-17T14:01:05.691Z,5.80
2018-08-17T14:02:10.327Z,6.13
2018-08-17T14:03:14.464Z,5.28
2018-08-17T14:04:18.614Z,6.10
2018-08-17T14:05:22.834Z,6.20
2018-08-17T14:06:27.105Z,5.35
2018-08-17T14:07:31.329Z,6.00
2018-08-17T14:08:35.533Z,6.53
2018-08-17T14:09:39.846Z,6.10